1883 Cyclonic Storm NOT_NAMED (1883177N20089)


IBTrACS version v04r00. Visit IBTrACS website for data access.
Please direct all questions to the IBTrACS Q and A forum

Storm track - Intensity - Wind Radii - Intensity Data - Source Data - All data

Summary Information

Storm ID 1883177N20089
Start Jun 26 00Z
Landfall Jun 29 06Z
Max Intensity 45 kt (Jul 4 00Z)
End Jul 4 03Z
ATCF IDs
Track status Best track data.

Storm track plot

Map of storm track

Intensity plots

Map of storm track

Radial wind information

No radial wind information for this storm


Position and Intensity Table

BASIN ISO_TIME_________ NATURE LAT LON DS824 WIND
degrees north degrees east kts
NI 1883-06-26 00:00:00 TS 20.00 89.30 30
NI 03:00:00 TS 20.06 89.27 30
NI 06:00:00 TS 20.16 89.21 30
NI 09:00:00 TS 20.27 89.12 30
NI 12:00:00 TS 20.36 89.04 30
NI 15:00:00 TS 20.43 88.97 30
NI 18:00:00 TS 20.49 88.92 30
NI 21:00:00 TS 20.54 88.86 30
NI 1883-06-27 00:00:00 TS 20.59 88.82 30
NI 03:00:00 TS 20.60 88.80 30
NI 06:00:00 TS 20.61 88.79 30
NI 09:00:00 TS 20.61 88.79 30
NI 12:00:00 TS 20.60 88.80 30
NI 15:00:00 TS 20.60 88.80 30
NI 18:00:00 TS 20.59 88.81 30
NI 21:00:00 TS 20.58 88.81 30
NI 1883-06-28 00:00:00 TS 20.59 88.81 30
NI 03:00:00 TS 20.64 88.78 30
NI 06:00:00 TS 20.74 88.73 30
NI 09:00:00 TS 20.83 88.65 30
NI 12:00:00 TS 20.94 88.55 30
NI 15:00:00 TS 21.05 88.45 30
NI 18:00:00 TS 21.15 88.38 30
NI 21:00:00 TS 21.25 88.29 30
NI 1883-06-29 00:00:00 TS 21.35 88.12 30
NI 03:00:00 TS 21.48 87.78 30
NI 06:00:00 TS 21.60 87.30 30
NI 09:00:00 TS 21.69 86.81 30
NI 12:00:00 TS 21.76 86.28 30
NI 15:00:00 TS 21.83 85.69 30
NI 18:00:00 TS 21.89 85.11 30
NI 21:00:00 TS 21.94 84.58 30
NI 1883-06-30 00:00:00 TS 21.99 84.18 30
NI 03:00:00 TS 22.00 83.97 30
NI 06:00:00 TS 22.01 83.93 30
NI 09:00:00 TS 22.01 83.92 30
NI 12:00:00 TS 22.00 83.96 30
NI 15:00:00 TS 22.00 84.00 30
NI 18:00:00 TS 21.99 84.05 30
NI 21:00:00 TS 21.98 84.13 30
NI 1883-07-01 00:00:00 TS 21.98 84.09 30
NI 03:00:00 TS 22.01 83.81 30
NI 06:00:00 TS 22.09 83.30 30
NI 09:00:00 TS 22.21 82.66 30
NI 12:00:00 TS 22.34 81.84 30
NI 15:00:00 TS 22.46 80.87 30
NI 18:00:00 TS 22.54 79.80 30
NI 21:00:00 TS 22.61 78.67 30
NI 1883-07-02 00:00:00 TS 22.67 77.55 30
NI 03:00:00 TS 22.72 76.53 30
NI 06:00:00 TS 22.78 75.63 30
NI 09:00:00 TS 22.82 74.75 30
NI 12:00:00 TS 22.87 73.91 30
NI 15:00:00 TS 22.92 73.07 30
NI 18:00:00 TS 22.99 72.20 30
NI 21:00:00 TS 23.08 71.34 30
NI 1883-07-03 00:00:00 TS 23.16 70.56 30
NI 03:00:00 TS 23.23 69.95 31
NI 06:00:00 TS 23.28 69.46 32
NI 09:00:00 TS 23.33 68.98 33
NI 12:00:00 TS 23.38 68.51 34
NI 15:00:00 TS 23.42 68.05 36
NI 18:00:00 TS 23.47 67.61 39
NI 21:00:00 TS 23.52 67.13 42
NI 1883-07-04 00:00:00 TS 23.57 66.65 45
NI 03:00:00 NR 23.60 66.30

Source Information

Agency Information
USA
TOKYO
CMA
HKO
NEWDELHI
REUNION
BOM
NADI
WELLINGTON
DS824 n_ind.dat:63:NOT NAMED
TD9636 cons_worldwide_trop_cyclone_18710101-19891231-004:Line=599
TD9635
NEUMANN
MLC

All available IBTrACS Data

SEASON BASIN SUBBASIN ISO_TIME_________ NATURE LAT LON DIST2LAND LANDFALL IFLAG USA SSHS DS824 LAT DS824 LON DS824 STAGE DS824 WIND TD9636 LAT TD9636 LON TD9636 STAGE STORM SPEED STORM DIR
Year degrees north degrees east km km 1 degrees north degrees east kts degrees north degrees east kts degrees
1883 NI BB 1883-06-26 00:00:00 TS 20.00 89.30 180 169 _________O____ -1 20.00 89.30 TC 30 1 342
1883 NI BB 03:00:00 TS 20.06 89.27 169 156 _________PO___ -1 20.10 89.26 TC 30 20.00 89.30 1 2 332
1883 NI BB 06:00:00 TS 20.16 89.21 156 145 _________OP___ -1 20.20 89.20 TC 30 20.11 89.22 1 3 324
1883 NI BB 09:00:00 TS 20.27 89.12 145 134 _________PP___ -1 20.31 89.10 TC 30 20.22 89.15 1 3 320
1883 NI BB 12:00:00 TS 20.36 89.04 134 134 _________OP___ -1 20.40 89.00 TC 30 20.31 89.07 1 2 319
1883 NI BB 15:00:00 TS 20.43 88.97 134 123 _________PO___ -1 20.46 88.94 TC 30 20.40 89.00 1 2 319
1883 NI BB 18:00:00 TS 20.49 88.92 123 123 _________OP___ -1 20.50 88.90 TC 30 20.47 88.93 1 2 319
1883 NI BB 21:00:00 TS 20.54 88.86 123 111 _________PP___ -1 20.56 88.84 TC 30 20.53 88.88 1 1 317
1883 NI BB 1883-06-27 00:00:00 TS 20.59 88.82 112 112 _________OP___ -1 20.60 88.80 TC 30 20.57 88.83 1 1 319
1883 NI BB 03:00:00 TS 20.60 88.80 112 112 _________PO___ -1 20.61 88.79 TC 30 20.60 88.80 1 0 0
1883 NI BB 06:00:00 TS 20.61 88.79 112 112 _________OP___ -1 20.60 88.80 TC 30 20.61 88.79 1 0 0
1883 NI BB 09:00:00 TS 20.61 88.79 112 112 _________PP___ -1 20.60 88.80 TC 30 20.61 88.78 1 0 0
1883 NI BB 12:00:00 TS 20.60 88.80 112 112 _________OP___ -1 20.60 88.80 TC 30 20.61 88.79 1 0 0
1883 NI BB 15:00:00 TS 20.60 88.80 112 112 _________PO___ -1 20.60 88.80 TC 30 20.60 88.80 1 0 0
1883 NI BB 18:00:00 TS 20.59 88.81 112 112 _________OP___ -1 20.60 88.80 TC 30 20.58 88.81 1 0 0
1883 NI BB 21:00:00 TS 20.58 88.81 112 112 _________PP___ -1 20.58 88.81 TC 30 20.57 88.82 1 0 0
1883 NI BB 1883-06-28 00:00:00 TS 20.59 88.81 112 112 _________OP___ -1 20.60 88.80 TC 30 20.57 88.82 1 1 325
1883 NI BB 03:00:00 TS 20.64 88.78 112 101 _________PO___ -1 20.68 88.76 TC 30 20.60 88.80 1 2 333
1883 NI BB 06:00:00 TS 20.74 88.73 102 91 _________OP___ -1 20.80 88.70 TC 30 20.67 88.75 1 2 327
1883 NI BB 09:00:00 TS 20.83 88.65 90 78 _________PP___ -1 20.90 88.61 TC 30 20.77 88.69 1 3 322
1883 NI BB 12:00:00 TS 20.94 88.55 78 67 _________OP___ -1 21.00 88.50 TC 30 20.88 88.60 1 3 320
1883 NI BB 15:00:00 TS 21.05 88.45 67 55 _________PO___ -1 21.10 88.41 TC 30 21.00 88.50 1 3 322
1883 NI BB 18:00:00 TS 21.15 88.38 55 44 _________OP___ -1 21.20 88.30 TC 30 21.10 88.45 1 2 323
1883 NI BB 21:00:00 TS 21.25 88.29 44 33 _________PP___ -1 21.29 88.21 TC 30 21.20 88.38 1 3 310
1883 NI BB 1883-06-29 00:00:00 TS 21.35 88.12 35 22 _________OP___ -1 21.40 88.00 TC 30 21.30 88.24 1 5 296
1883 NI BB 03:00:00 TS 21.48 87.78 22 0 _________PO___ -1 21.56 87.55 TC 30 21.40 88.00 1 8 289
1883 NI BB 06:00:00 TS 21.60 87.30 0 0 _________OP___ -1 21.70 87.00 TC 30 21.51 87.61 1 9 283
1883 NI BB 09:00:00 TS 21.69 86.81 0 0 _________PP___ -1 21.76 86.51 TC 30 21.62 87.11 1 10 279
1883 NI BB 12:00:00 TS 21.76 86.28 0 0 _________OP___ -1 21.80 86.00 TC 30 21.71 86.56 1 11 277
1883 NI BB 15:00:00 TS 21.83 85.69 0 0 _________PO___ -1 21.85 85.39 TC 30 21.80 86.00 1 11 277
1883 NI BB 18:00:00 TS 21.89 85.11 0 0 _________OP___ -1 21.90 84.80 TC 30 21.87 85.42 1 10 277
1883 NI BB 21:00:00 TS 21.94 84.58 0 0 _________PP___ -1 21.96 84.31 TC 30 21.93 84.85 1 9 277
1883 NI BB 1883-06-30 00:00:00 TS 21.99 84.18 0 0 _________OP___ -1 22.00 84.00 TC 30 21.97 84.36 1 6 276
1883 NI BB 03:00:00 TS 22.00 83.97 0 0 _________PO___ -1 22.01 83.94 TC 30 22.00 84.00 1 2 275
1883 NI BB 06:00:00 TS 22.01 83.93 0 0 _________OP___ -1 22.00 84.00 TC 30 22.01 83.86 1 0 275
1883 NI BB 09:00:00 TS 22.01 83.92 0 0 _________PP___ -1 22.00 84.00 TC 30 22.01 83.85 1 0 94
1883 NI BB 12:00:00 TS 22.00 83.96 0 0 _________OP___ -1 22.00 84.00 TC 30 22.01 83.92 1 1 96
1883 NI BB 15:00:00 TS 22.00 84.00 0 0 _________PO___ -1 22.00 84.00 TC 30 22.00 84.00 1 1 98
1883 NI BB 18:00:00 TS 21.99 84.05 0 0 _________OP___ -1 22.00 84.00 TC 30 21.98 84.11 1 1 99
1883 NI BB 21:00:00 TS 21.98 84.13 0 0 _________PP___ -1 21.99 84.07 TC 30 21.97 84.19 1 0 100
1883 NI BB 1883-07-01 00:00:00 TS 21.98 84.09 0 0 _________OP___ -1 22.00 84.00 TC 30 21.97 84.19 1 3 276
1883 NI BB 03:00:00 TS 22.01 83.81 0 0 _________PO___ -1 22.03 83.62 TC 30 22.00 84.00 1 7 278
1883 NI BB 06:00:00 TS 22.09 83.30 0 0 _________OP___ -1 22.10 83.00 TC 30 22.07 83.61 1 11 280
1883 NI BB 09:00:00 TS 22.21 82.66 0 0 _________PP___ -1 22.24 82.29 TC 30 22.18 83.03 1 14 281
1883 NI BB 12:00:00 TS 22.34 81.84 0 0 _________OP___ -1 22.40 81.40 TC 30 22.29 82.28 1 17 279
1883 NI BB 15:00:00 TS 22.46 80.87 0 0 _________PO___ -1 22.52 80.34 TC 30 22.40 81.40 1 19 276
1883 NI BB 18:00:00 TS 22.54 79.80 0 0 _________OP___ -1 22.60 79.20 TC 30 22.49 80.39 1 20 274
1883 NI BB 21:00:00 TS 22.61 78.67 0 0 _________PP___ -1 22.66 78.07 TC 30 22.57 79.27 1 21 273
1883 NI AS 1883-07-02 00:00:00 TS 22.67 77.55 0 0 _________OP___ -1 22.70 77.00 TC 30 22.64 78.11 1 20 273
1883 NI AS 03:00:00 TS 22.72 76.53 0 0 _________PO___ -1 22.75 76.06 TC 30 22.70 77.00 1 18 273
1883 NI AS 06:00:00 TS 22.78 75.63 0 0 _________OP___ -1 22.80 75.20 TC 30 22.75 76.05 1 16 273
1883 NI AS 09:00:00 TS 22.82 74.75 0 0 _________PP___ -1 22.85 74.34 TC 30 22.80 75.17 1 16 274
1883 NI AS 12:00:00 TS 22.87 73.91 0 0 _________OP___ -1 22.90 73.50 TC 30 22.84 74.32 1 16 274
1883 NI AS 15:00:00 TS 22.92 73.07 0 0 _________PO___ -1 22.94 72.64 TC 30 22.90 73.50 1 16 274
1883 NI AS 18:00:00 TS 22.99 72.20 0 0 _________OP___ -1 23.00 71.80 TC 30 22.97 72.60 1 16 276
1883 NI AS 21:00:00 TS 23.08 71.34 0 0 _________PP___ -1 23.10 70.94 TC 30 23.05 71.73 1 15 277
1883 NI AS 1883-07-03 00:00:00 TS 23.16 70.56 0 0 _________OP___ -1 23.20 70.20 TC 30 23.13 70.92 1 13 277
1883 NI AS 03:00:00 TS 23.23 69.95 0 0 _________PO___ -1 23.26 69.70 TC 31 23.20 70.20 1 10 276
1883 NI AS 06:00:00 TS 23.28 69.46 0 0 _________OP___ -1 23.30 69.30 TC 32 23.25 69.63 1 9 276
1883 NI AS 09:00:00 TS 23.33 68.98 0 0 _________PP___ -1 23.35 68.81 TC 33 23.30 69.15 1 9 276
1883 NI AS 12:00:00 TS 23.38 68.51 10 10 _________OP___ -1 23.40 68.30 TC 34 23.35 68.73 1 9 277
1883 NI AS 15:00:00 TS 23.42 68.05 24 30 _________PO___ -1 23.45 67.80 TC 36 23.40 68.30 2 8 277
1883 NI AS 18:00:00 TS 23.47 67.61 33 33 _________OP___ -1 23.50 67.30 TC 39 23.45 67.84 2 9 276
1883 NI AS 21:00:00 TS 23.52 67.13 60 60 _________PP___ -1 23.55 66.80 TC 42 23.50 67.35 2 9 276
1883 NI AS 1883-07-04 00:00:00 TS 23.57 66.65 84 84 _________OP___ -1 23.60 66.30 TC 45 23.55 66.83 2 8 276
1883 NI AS 03:00:00 NR 23.60 66.30 120 __________O___ -1 TC 23.60 66.30 3 6 276